createdAt,value
2023-05-11T00:02:00.669Z,101523.92
2023-05-11T00:05:59.106Z,101526.14
2023-05-11T00:10:00.458Z,101530.02
2023-05-11T00:13:58.981Z,101526.62
2023-05-11T00:18:00.657Z,101525.76
2023-05-11T00:21:58.964Z,101524.95
2023-05-11T00:26:00.716Z,101528.21
2023-05-11T00:29:58.875Z,101525.86
2023-05-11T00:34:00.488Z,101526.08
2023-05-11T00:37:59.085Z,101526.05
2023-05-11T00:42:00.041Z,101524.45
2023-05-11T00:45:58.020Z,101529.67
2023-05-11T00:49:59.246Z,101529.81
2023-05-11T00:53:56.876Z,101532.86
2023-05-11T00:57:58.700Z,101534.20
2023-05-11T01:01:57.040Z,101534.02
2023-05-11T01:05:58.507Z,101533.66
2023-05-11T01:09:56.280Z,101533.01
2023-05-11T01:13:56.638Z,101530.89
2023-05-11T01:17:54.200Z,101534.84
2023-05-11T01:21:54.563Z,101531.04
2023-05-11T01:25:52.437Z,101528.16
2023-05-11T01:29:52.792Z,101528.90
2023-05-11T01:33:50.384Z,101528.11
2023-05-11T01:37:50.847Z,101528.73
2023-05-11T01:41:48.463Z,101528.98
2023-05-11T01:45:50.626Z,101534.29
2023-05-11T01:49:48.528Z,101537.85
2023-05-11T01:53:48.757Z,101538.87
2023-05-11T01:57:46.225Z,101538.80
2023-05-11T02:01:45.830Z,101534.27
2023-05-11T02:05:44.505Z,101540.45
2023-05-11T02:09:44.768Z,101541.14
2023-05-11T02:13:42.267Z,101544.04
2023-05-11T02:17:42.026Z,101544.55
2023-05-11T02:21:39.318Z,101544.94
2023-05-11T02:25:39.776Z,101547.23
2023-05-11T02:29:37.461Z,101543.21
2023-05-11T02:33:36.909Z,101551.52
2023-05-11T02:37:34.605Z,101547.64
2023-05-11T02:41:34.851Z,101552.02
2023-05-11T02:45:32.803Z,101550.34
2023-05-11T02:49:31.640Z,101552.47
2023-05-11T02:53:29.933Z,101557.63
2023-05-11T02:57:30.862Z,101559.42
2023-05-11T03:01:31.426Z,101561.39
2023-05-11T03:05:31.746Z,101558.39
2023-05-11T03:09:29.594Z,101564.86
2023-05-11T03:13:29.792Z,101566.67
2023-05-11T03:17:28.755Z,101570.19
2023-05-11T03:21:29.832Z,101571.72
2023-05-11T03:25:27.575Z,101574.62
2023-05-11T03:29:28.007Z,101583.19
2023-05-11T03:33:25.836Z,101582.40
2023-05-11T03:37:25.888Z,101583.65
2023-05-11T03:41:23.381Z,101587.83
2023-05-11T03:45:24.889Z,101586.70
2023-05-11T03:49:22.566Z,101585.84
2023-05-11T03:53:21.954Z,101590.79
2023-05-11T03:57:19.735Z,101584.67
2023-05-11T04:01:16.813Z,101587.80
2023-05-11T04:05:16.678Z,101591.89
2023-05-11T04:09:15.682Z,101586.04
2023-05-11T04:13:15.722Z,101589.60
2023-05-11T04:17:13.920Z,101592.24
2023-05-11T04:21:13.814Z,101596.69
2023-05-11T04:25:12.713Z,101601.23
2023-05-11T04:29:12.976Z,101600.17
2023-05-11T04:33:10.849Z,101605.63
2023-05-11T04:37:09.753Z,101607.58
2023-05-11T04:41:11.147Z,101600.33
2023-05-11T04:45:10.648Z,101604.13
2023-05-11T04:49:11.127Z,101601.84
2023-05-11T04:53:10.608Z,101601.38
2023-05-11T04:57:10.961Z,101606.90
2023-05-11T05:01:08.542Z,101601.44
2023-05-11T05:05:08.224Z,101600.21
2023-05-11T05:09:05.812Z,101597.81
2023-05-11T05:13:06.079Z,101597.41
2023-05-11T05:17:03.631Z,101597.70
2023-05-11T05:21:03.862Z,101594.12
2023-05-11T05:25:01.809Z,101592.04
2023-05-11T05:29:02.098Z,101587.64
2023-05-11T05:33:01.044Z,101586.72
2023-05-11T05:37:00.439Z,101592.30
2023-05-11T05:40:58.730Z,101587.88
2023-05-11T05:44:53.591Z,101587.10
2023-05-11T05:48:58.268Z,101581.25
2023-05-11T05:52:58.099Z,101584.45
2023-05-11T05:56:56.963Z,101587.39
2023-05-11T06:00:57.368Z,101586.13
2023-05-11T06:05:02.987Z,101579.55
2023-05-11T06:09:04.088Z,101583.20
2023-05-11T06:13:01.743Z,101580.58
2023-05-11T06:16:59.344Z,101576.90
2023-05-11T06:20:47.222Z,101579.72
2023-05-11T06:24:32.970Z,101582.60
2023-05-11T06:28:18.214Z,101575.98
2023-05-11T06:32:03.481Z,101580.27
2023-05-11T06:35:49.295Z,101580.52
2023-05-11T06:39:35.036Z,101578.17
2023-05-11T06:43:20.221Z,101577.77
2023-05-11T06:47:12.877Z,101577.09
2023-05-11T06:51:10.901Z,101574.44
2023-05-11T06:55:11.253Z,101574.57
2023-05-11T06:59:08.749Z,101574.83
2023-05-11T07:03:08.275Z,101573.91
2023-05-11T07:07:18.851Z,101571.13
2023-05-11T07:11:17.708Z,101566.83
2023-05-11T07:15:19.209Z,101567.57
2023-05-11T07:19:17.805Z,101567.91
2023-05-11T07:23:17.009Z,101570.34
2023-05-11T07:27:15.720Z,101576.33
2023-05-11T07:31:15.301Z,101574.79
2023-05-11T07:35:13.764Z,101574.06
2023-05-11T07:39:19.245Z,101564.95
2023-05-11T07:43:17.728Z,101569.24
2023-05-11T07:47:19.066Z,101568.66
2023-05-11T07:51:17.797Z,101564.59
2023-05-11T07:55:19.282Z,101562.58
2023-05-11T07:59:17.121Z,101566.55
2023-05-11T08:03:18.769Z,101567.64
2023-05-11T08:07:13.830Z,101564.22
2023-05-11T08:11:15.095Z,101567.39
2023-05-11T08:15:14.198Z,101560.57
2023-05-11T08:19:13.457Z,101559.75
2023-05-11T08:23:10.962Z,101555.08
2023-05-11T08:27:10.598Z,101555.16
2023-05-11T08:31:08.802Z,101556.20
2023-05-11T08:35:13.773Z,101562.91
2023-05-11T08:39:12.026Z,101569.41
2023-05-11T08:43:13.909Z,101571.63
2023-05-11T08:47:22.907Z,101565.36
2023-05-11T08:51:25.531Z,101565.75
2023-05-11T08:55:21.174Z,101563.81
2023-05-11T08:59:20.549Z,101559.27
2023-05-11T09:03:16.029Z,101553.90
2023-05-11T09:07:14.982Z,101549.67
2023-05-11T09:11:10.427Z,101550.34
2023-05-11T09:15:07.584Z,101553.73
2023-05-11T09:19:03.214Z,101550.20
2023-05-11T09:23:03.096Z,101549.39
2023-05-11T09:26:58.672Z,101546.41
2023-05-11T09:30:58.062Z,101541.92
2023-05-11T09:34:54.391Z,101534.34
2023-05-11T09:38:57.288Z,101536.59
2023-05-11T09:42:53.329Z,101531.45
2023-05-11T09:46:52.837Z,101526.95
2023-05-11T09:50:49.171Z,101525.31
2023-05-11T09:54:48.570Z,101528.45
2023-05-11T09:58:44.055Z,101522.07
2023-05-11T10:02:43.112Z,101521.17
2023-05-11T10:06:38.960Z,101517.08
2023-05-11T10:10:38.381Z,101515.43
2023-05-11T10:14:34.331Z,101514.55
2023-05-11T10:18:33.931Z,101514.42
2023-05-11T10:22:29.602Z,101511.70
2023-05-11T10:26:29.172Z,101508.99
2023-05-11T10:30:24.297Z,101509.02
2023-05-11T10:34:23.491Z,101506.46
2023-05-11T10:38:19.284Z,101508.48
2023-05-11T10:42:18.990Z,101508.69
2023-05-11T10:46:14.464Z,101500.75
2023-05-11T10:50:10.282Z,101489.10
2023-05-11T10:54:10.265Z,101482.66
2023-05-11T10:58:07.203Z,101479.75
2023-05-11T11:02:09.047Z,101477.31
2023-05-11T11:06:10.311Z,101485.14
2023-05-11T11:10:09.975Z,101489.02
2023-05-11T11:14:03.101Z,101486.77
2023-05-11T11:18:06.322Z,101494.00
2023-05-11T11:22:02.254Z,101494.31
2023-05-11T11:26:01.562Z,101492.67
2023-05-11T11:29:57.325Z,101492.79
2023-05-11T11:33:57.014Z,101497.02
2023-05-11T11:37:52.400Z,101494.47
2023-05-11T11:41:48.115Z,101484.59
2023-05-11T11:45:45.088Z,101479.74
2023-05-11T11:49:44.893Z,101474.79
2023-05-11T11:53:44.610Z,101482.94
2023-05-11T11:57:40.284Z,101483.81
2023-05-11T12:01:39.465Z,101483.81
2023-05-11T12:05:35.270Z,101479.52
2023-05-11T12:09:32.587Z,101475.59
2023-05-11T12:13:25.534Z,101472.73
2023-05-11T12:17:28.855Z,101466.16
2023-05-11T12:21:27.880Z,101459.98
2023-05-11T12:25:23.760Z,101463.64
2023-05-11T12:29:23.748Z,101465.28
2023-05-11T12:33:19.452Z,101461.96
2023-05-11T12:37:18.485Z,101459.60
2023-05-11T12:41:14.522Z,101455.89
2023-05-11T12:45:14.289Z,101460.84
2023-05-11T12:49:09.599Z,101461.07
2023-05-11T12:53:09.070Z,101461.34
2023-05-11T12:57:04.530Z,101456.73
2023-05-11T13:01:04.085Z,101458.27
2023-05-11T13:04:59.400Z,101455.84
2023-05-11T13:08:58.702Z,101448.50
2023-05-11T13:12:54.421Z,101445.69
2023-05-11T13:16:53.694Z,101440.07
2023-05-11T13:20:49.426Z,101433.11
2023-05-11T13:24:48.661Z,101432.20
2023-05-11T13:28:50.226Z,101427.11
2023-05-11T13:32:54.832Z,101424.52
2023-05-11T13:36:50.527Z,101418.13
2023-05-11T13:40:50.125Z,101416.23
2023-05-11T13:44:45.695Z,101411.23
2023-05-11T13:48:45.295Z,101413.23
2023-05-11T13:52:40.914Z,101416.11
2023-05-11T13:56:40.220Z,101418.67
2023-05-11T14:00:35.335Z,101422.66
2023-05-11T14:04:34.490Z,101424.48
2023-05-11T14:08:29.630Z,101431.46
2023-05-11T14:12:29.292Z,101437.01
2023-05-11T14:16:24.625Z,101439.14
2023-05-11T14:20:23.832Z,101437.55
2023-05-11T14:24:19.806Z,101436.92
2023-05-11T14:28:19.067Z,101437.89
2023-05-11T14:32:14.460Z,101434.40
2023-05-11T14:36:13.992Z,101434.71
2023-05-11T14:40:09.753Z,101433.29
2023-05-11T14:44:09.135Z,101431.30
2023-05-11T14:48:04.984Z,101428.83
2023-05-11T14:52:00.778Z,101427.42
2023-05-11T14:56:00.460Z,101435.06
2023-05-11T14:59:59.947Z,101434.31
2023-05-11T15:03:59.794Z,101433.71
2023-05-11T15:08:05.172Z,101429.27
2023-05-11T15:12:07.520Z,101427.36
2023-05-11T15:16:05.596Z,101430.23
2023-05-11T15:20:07.216Z,101429.20
2023-05-11T15:24:05.445Z,101424.50
2023-05-11T15:28:07.050Z,101422.08
2023-05-11T15:32:05.707Z,101423.16
2023-05-11T15:36:07.638Z,101419.58
2023-05-11T15:40:05.575Z,101419.23
2023-05-11T15:44:07.099Z,101420.27
2023-05-11T15:48:05.662Z,101416.95
2023-05-11T15:52:07.015Z,101419.73
2023-05-11T15:56:05.578Z,101417.63
2023-05-11T16:00:07.476Z,101418.98
2023-05-11T16:04:06.402Z,101421.06
2023-05-11T16:08:08.365Z,101419.94
2023-05-11T16:12:06.597Z,101419.00
2023-05-11T16:16:08.147Z,101420.24
2023-05-11T16:20:06.835Z,101419.58
2023-05-11T16:24:03.849Z,101421.14
2023-05-11T16:28:03.515Z,101416.69
2023-05-11T16:32:05.507Z,101420.25
2023-05-11T16:36:10.214Z,101423.36
2023-05-11T16:40:08.882Z,101419.95
2023-05-11T16:44:10.231Z,101423.17
2023-05-11T16:48:08.668Z,101428.54
2023-05-11T16:52:05.848Z,101433.80
2023-05-11T16:55:59.109Z,101431.48
2023-05-11T17:00:00.159Z,101437.06
2023-05-11T17:03:58.814Z,101435.34
2023-05-11T17:08:00.831Z,101436.67
2023-05-11T17:11:58.884Z,101440.65
2023-05-11T17:15:58.664Z,101442.55
2023-05-11T17:19:56.227Z,101444.34
2023-05-11T17:23:54.835Z,101442.89
2023-05-11T17:27:44.121Z,101448.48
2023-05-11T17:31:35.467Z,101456.28
2023-05-11T17:35:31.401Z,101458.08
2023-05-11T17:39:31.322Z,101464.24
2023-05-11T17:43:31.309Z,101473.21
2023-05-11T17:47:29.042Z,101477.48
2023-05-11T17:51:29.335Z,101482.34
2023-05-11T17:55:29.332Z,101486.80
2023-05-11T17:59:21.153Z,101491.73
2023-05-11T18:03:06.519Z,101496.25
2023-05-11T18:06:51.648Z,101504.85
2023-05-11T18:10:36.795Z,101504.95
2023-05-11T18:14:30.248Z,101502.35
2023-05-11T18:18:30.361Z,101505.55
2023-05-11T18:22:28.199Z,101507.79
2023-05-11T18:26:28.508Z,101514.98
2023-05-11T18:30:26.124Z,101515.97
2023-05-11T18:34:27.244Z,101522.16
2023-05-11T18:38:19.025Z,101520.98
2023-05-11T18:42:03.920Z,101519.76
2023-05-11T18:45:48.928Z,101524.12
2023-05-11T18:49:40.315Z,101525.70
2023-05-11T18:53:39.869Z,101525.05
2023-05-11T18:57:41.536Z,101526.42
2023-05-11T19:01:47.564Z,101526.50
2023-05-11T19:05:50.362Z,101525.18
2023-05-11T19:09:48.981Z,101534.30
2023-05-11T19:13:43.314Z,101535.35
2023-05-11T19:17:34.045Z,101535.45
2023-05-11T19:21:24.725Z,101538.58
2023-05-11T19:25:23.096Z,101536.83
2023-05-11T19:29:20.837Z,101538.81
2023-05-11T19:33:11.538Z,101536.66
2023-05-11T19:36:58.001Z,101537.48
2023-05-11T19:40:46.254Z,101534.61
2023-05-11T19:44:31.523Z,101537.88
2023-05-11T19:48:16.594Z,101542.55
2023-05-11T19:52:01.646Z,101545.02
2023-05-11T19:55:48.373Z,101542.23
2023-05-11T19:59:33.398Z,101540.11
2023-05-11T20:03:18.343Z,101542.52
2023-05-11T20:07:03.604Z,101541.69
2023-05-11T20:10:48.817Z,101545.83
2023-05-11T20:14:34.008Z,101543.80
2023-05-11T20:18:27.047Z,101545.92
2023-05-11T20:22:28.538Z,101546.22
2023-05-11T20:26:27.115Z,101542.86
2023-05-11T20:30:28.572Z,101542.89
2023-05-11T20:34:26.243Z,101542.11
2023-05-11T20:38:28.634Z,101546.02
2023-05-11T20:42:27.219Z,101546.73
2023-05-11T20:46:28.478Z,101545.66
2023-05-11T20:50:26.566Z,101549.06
2023-05-11T20:54:18.537Z,101552.77
2023-05-11T20:58:03.795Z,101555.25
2023-05-11T21:01:48.796Z,101557.13
2023-05-11T21:05:33.752Z,101557.51
2023-05-11T21:09:18.922Z,101552.63
2023-05-11T21:13:03.784Z,101554.14
2023-05-11T21:16:49.189Z,101552.60
2023-05-11T21:20:34.110Z,101552.86
2023-05-11T21:24:19.202Z,101557.98
2023-05-11T21:28:03.934Z,101559.70
2023-05-11T21:32:04.698Z,101559.73
2023-05-11T21:36:05.106Z,101558.95
2023-05-11T21:40:07.838Z,101553.95
2023-05-11T21:44:06.022Z,101551.46
2023-05-11T21:48:07.713Z,101556.89
2023-05-11T21:52:06.199Z,101555.03
2023-05-11T21:56:07.777Z,101556.37
2023-05-11T22:00:06.190Z,101559.23
2023-05-11T22:04:07.778Z,101562.59
2023-05-11T22:08:13.994Z,101559.14
2023-05-11T22:12:16.746Z,101561.48
2023-05-11T22:16:15.205Z,101558.44
2023-05-11T22:20:16.919Z,101562.15
2023-05-11T22:24:14.495Z,101566.27
2023-05-11T22:28:14.754Z,101573.05
2023-05-11T22:32:12.537Z,101573.09
2023-05-11T22:36:12.925Z,101566.20
2023-05-11T22:40:10.419Z,101571.90
2023-05-11T22:44:09.605Z,101566.05
2023-05-11T22:48:07.513Z,101562.67
2023-05-11T22:52:07.851Z,101563.73
2023-05-11T22:56:05.678Z,101566.39
2023-05-11T23:00:05.852Z,101566.73
2023-05-11T23:04:03.588Z,101567.73
2023-05-11T23:08:14.115Z,101566.33
2023-05-11T23:12:15.732Z,101565.79
2023-05-11T23:16:14.421Z,101563.70
2023-05-11T23:20:13.649Z,101566.01
2023-05-11T23:24:05.577Z,101561.81
2023-05-11T23:27:50.965Z,101568.77
2023-05-11T23:31:36.181Z,101573.77
2023-05-11T23:35:21.443Z,101565.68
2023-05-11T23:39:06.268Z,101570.90
2023-05-11T23:42:51.655Z,101565.96
2023-05-11T23:46:42.733Z,101570.94
2023-05-11T23:50:34.400Z,101576.11
2023-05-11T23:54:25.607Z,101572.33
2023-05-11T23:58:25.203Z,101569.77
